McGirk, Missouri
Current Conditions -  °F | °C
As of 7:53 AM on Thursday 30 Oct 2014 (Local Time) from KJEF Reporting Station
Few Clouds Few Clouds  
Wind Chill: 33°   Ceiling: Unl
Heat Index: 38°   Visibility: 10mi
Dew Point: 35°   Wind: 7mph
Humidity: 89%   Direction: 120°ESE
Pressure: 30.1"   Gusts: NA
Location:  38.61°N, 92.48°W
Report Text: KJEF 301253Z 12006KT 10SM FEW100 03/02 A3010 RMK AO2 SLP186 T00330017
Loading
Personal Weather Stations






























Interactive Weather Map
Tropical Storm Tracking
New forecast layout! Learn more

10-Day Weather Forecast

Advertisements
Track Severe Weather on mobile